createdAt,value
2018-03-14T00:00:20.638Z,20.30
2018-03-14T00:01:25.434Z,20.30
2018-03-14T00:02:30.352Z,20.30
2018-03-14T00:03:35.213Z,20.30
2018-03-14T00:04:40.052Z,20.30
2018-03-14T00:05:45.952Z,20.30
2018-03-14T00:06:50.830Z,20.30
2018-03-14T00:07:55.683Z,20.30
2018-03-14T00:09:00.546Z,20.30
2018-03-14T00:10:05.509Z,20.30
2018-03-14T00:11:10.383Z,20.30
2018-03-14T00:12:15.227Z,20.30
2018-03-14T00:13:20.228Z,20.30
2018-03-14T00:14:25.061Z,20.30
2018-03-14T00:15:29.880Z,20.30
2018-03-14T00:16:34.867Z,20.30
2018-03-14T00:17:39.639Z,20.30
2018-03-14T00:18:44.679Z,20.30
2018-03-14T00:19:49.689Z,20.30
2018-03-14T00:20:54.560Z,20.30
2018-03-14T00:21:59.419Z,20.30
2018-03-14T00:23:04.235Z,20.30
2018-03-14T00:24:09.335Z,20.30
2018-03-14T00:25:14.280Z,20.30
2018-03-14T00:26:19.133Z,20.40
2018-03-14T00:27:23.936Z,20.30
2018-03-14T00:28:28.726Z,20.30
2018-03-14T00:29:33.580Z,20.30
2018-03-14T00:30:38.588Z,20.30
2018-03-14T00:31:43.561Z,20.30
2018-03-14T00:32:48.472Z,20.30
2018-03-14T00:33:53.369Z,20.30
2018-03-14T00:34:58.156Z,20.30
2018-03-14T00:36:03.149Z,20.30
2018-03-14T00:37:08.142Z,20.30
2018-03-14T00:38:12.934Z,20.30
2018-03-14T00:39:17.874Z,20.30
2018-03-14T00:40:22.852Z,20.30
2018-03-14T00:41:27.684Z,20.30
2018-03-14T00:42:32.483Z,20.30
2018-03-14T00:43:37.308Z,20.30
2018-03-14T00:44:42.291Z,20.30
2018-03-14T00:45:47.093Z,20.30
2018-03-14T00:46:52.094Z,20.30
2018-03-14T00:47:57.058Z,20.30
2018-03-14T00:49:02.121Z,20.30
2018-03-14T00:50:06.974Z,20.30
2018-03-14T00:51:11.747Z,20.30
2018-03-14T00:52:16.563Z,20.30
2018-03-14T00:53:21.401Z,20.30
2018-03-14T00:54:26.313Z,20.30
2018-03-14T00:55:31.324Z,20.30
2018-03-14T00:56:36.332Z,20.30
2018-03-14T00:57:41.289Z,20.30
2018-03-14T00:58:46.186Z,20.30
2018-03-14T00:59:51.270Z,20.20
2018-03-14T01:00:56.253Z,20.30
2018-03-14T01:02:01.094Z,20.30
2018-03-14T01:03:05.914Z,20.30
2018-03-14T01:04:10.706Z,20.30
2018-03-14T01:05:15.528Z,20.30
2018-03-14T01:06:20.580Z,20.30
2018-03-14T01:07:25.650Z,20.30
2018-03-14T01:08:30.412Z,20.30
2018-03-14T01:09:35.404Z,20.30
2018-03-14T01:10:40.436Z,20.30
2018-03-14T01:11:45.440Z,20.30
2018-03-14T01:12:50.349Z,20.30
2018-03-14T01:13:55.344Z,20.30
2018-03-14T01:15:00.341Z,20.30
2018-03-14T01:16:05.394Z,20.30
2018-03-14T01:17:10.334Z,20.40
2018-03-14T01:18:15.292Z,20.30
2018-03-14T01:19:20.371Z,20.30
2018-03-14T01:20:25.257Z,20.30
2018-03-14T01:21:30.127Z,20.30
2018-03-14T01:22:35.088Z,20.30
2018-03-14T01:23:40.176Z,20.30
2018-03-14T01:24:45.221Z,20.30
2018-03-14T01:25:50.217Z,20.30
2018-03-14T01:26:55.011Z,20.30
2018-03-14T01:27:59.873Z,20.30
2018-03-14T01:29:04.643Z,20.30
2018-03-14T01:30:09.716Z,20.30
2018-03-14T01:31:14.559Z,20.30
2018-03-14T01:32:19.381Z,20.30
2018-03-14T01:33:24.506Z,20.30
2018-03-14T01:34:29.538Z,20.30
2018-03-14T01:35:34.672Z,20.30
2018-03-14T01:36:39.800Z,20.30
2018-03-14T01:37:44.642Z,20.30
2018-03-14T01:38:49.493Z,20.30
2018-03-14T01:39:54.736Z,20.30
2018-03-14T01:40:59.767Z,20.30
2018-03-14T01:42:04.602Z,20.30
2018-03-14T01:43:09.519Z,20.30
2018-03-14T01:44:14.540Z,20.30
2018-03-14T01:45:19.483Z,20.30
2018-03-14T01:46:24.301Z,20.30
2018-03-14T01:47:29.092Z,20.30
2018-03-14T01:48:33.887Z,20.30
2018-03-14T01:49:38.817Z,20.30
2018-03-14T01:50:43.838Z,20.30
2018-03-14T01:51:48.677Z,20.30
2018-03-14T01:52:53.632Z,20.30
2018-03-14T01:53:58.613Z,20.30
2018-03-14T01:55:03.594Z,20.30
2018-03-14T01:56:08.480Z,20.30
2018-03-14T01:57:13.301Z,20.30
2018-03-14T01:58:18.381Z,20.30
2018-03-14T01:59:23.393Z,20.30
2018-03-14T02:00:28.363Z,20.30
2018-03-14T02:01:33.134Z,20.30
2018-03-14T02:02:38.118Z,20.30
2018-03-14T02:03:42.973Z,20.30
2018-03-14T02:04:47.829Z,20.30
2018-03-14T02:05:52.869Z,20.30
2018-03-14T02:06:57.821Z,20.30
2018-03-14T02:08:03.331Z,20.30
2018-03-14T02:09:08.342Z,20.30
2018-03-14T02:10:13.348Z,20.30
2018-03-14T02:11:18.237Z,20.30
2018-03-14T02:12:23.130Z,20.30
2018-03-14T02:13:28.077Z,20.30
2018-03-14T02:14:32.882Z,20.30
2018-03-14T02:15:37.879Z,20.30
2018-03-14T02:16:42.720Z,20.30
2018-03-14T02:17:47.771Z,20.30
2018-03-14T02:18:52.632Z,20.30
2018-03-14T02:19:57.730Z,20.30
2018-03-14T02:21:02.709Z,20.30
2018-03-14T02:22:07.826Z,20.30
2018-03-14T02:23:12.598Z,20.30
2018-03-14T02:24:18.069Z,20.30
2018-03-14T02:25:22.987Z,20.30
2018-03-14T02:26:27.802Z,20.30
2018-03-14T02:27:32.638Z,20.30
2018-03-14T02:28:37.465Z,20.30
2018-03-14T02:29:42.465Z,20.30
2018-03-14T02:30:47.315Z,20.20
2018-03-14T02:31:52.942Z,20.30
2018-03-14T02:32:57.948Z,20.30
2018-03-14T02:34:03.024Z,20.30
2018-03-14T02:35:08.015Z,20.30
2018-03-14T02:36:13.025Z,20.30
2018-03-14T02:37:17.935Z,20.30
2018-03-14T02:38:22.761Z,20.30
2018-03-14T02:39:27.614Z,20.30
2018-03-14T02:40:32.458Z,20.30
2018-03-14T02:41:37.318Z,20.30
2018-03-14T02:42:42.441Z,20.30
2018-03-14T02:43:47.457Z,20.30
2018-03-14T02:44:52.469Z,20.30
2018-03-14T02:45:57.930Z,20.30
2018-03-14T02:47:02.783Z,20.20
2018-03-14T02:48:07.687Z,20.30
2018-03-14T02:49:12.692Z,20.30
2018-03-14T02:50:17.671Z,20.20
2018-03-14T02:51:22.639Z,20.30
2018-03-14T02:52:27.678Z,20.20
2018-03-14T02:53:32.798Z,20.30
2018-03-14T02:54:37.667Z,20.20
2018-03-14T02:55:42.503Z,20.20
2018-03-14T02:56:47.502Z,20.20
2018-03-14T02:57:52.453Z,20.20
2018-03-14T02:58:57.873Z,20.20
2018-03-14T03:00:02.767Z,20.20
2018-03-14T03:01:07.697Z,20.20
2018-03-14T03:02:12.449Z,20.30
2018-03-14T03:03:17.417Z,20.20
2018-03-14T03:04:22.489Z,20.20
2018-03-14T03:05:27.496Z,20.20
2018-03-14T03:06:32.280Z,20.20
2018-03-14T03:07:37.961Z,20.20
2018-03-14T03:08:42.936Z,20.20
2018-03-14T03:09:47.840Z,20.20
2018-03-14T03:10:52.742Z,20.20
2018-03-14T03:11:57.643Z,20.20
2018-03-14T03:13:02.474Z,20.20
2018-03-14T03:14:07.528Z,20.20
2018-03-14T03:15:12.288Z,20.20
2018-03-14T03:16:17.128Z,20.20
2018-03-14T03:17:22.113Z,20.20
2018-03-14T03:18:27.163Z,20.20
2018-03-14T03:19:32.032Z,20.20
2018-03-14T03:20:37.021Z,20.20
2018-03-14T03:21:41.921Z,20.20
2018-03-14T03:22:46.795Z,20.20
2018-03-14T03:23:51.647Z,20.20
2018-03-14T03:24:56.646Z,20.20
2018-03-14T03:26:01.476Z,20.20
2018-03-14T03:27:06.414Z,20.20
2018-03-14T03:28:11.216Z,20.20
2018-03-14T03:29:16.234Z,20.20
2018-03-14T03:30:21.019Z,20.20
2018-03-14T03:31:26.018Z,20.20
2018-03-14T03:32:31.009Z,20.20
2018-03-14T03:33:36.094Z,20.20
2018-03-14T03:34:41.015Z,20.20
2018-03-14T03:35:46.014Z,20.20
2018-03-14T03:36:50.802Z,20.20
2018-03-14T03:37:55.603Z,20.20
2018-03-14T03:39:00.395Z,20.20
2018-03-14T03:40:05.425Z,20.20
2018-03-14T03:41:10.494Z,20.20
2018-03-14T03:42:16.057Z,20.20
2018-03-14T03:43:21.120Z,20.20
2018-03-14T03:44:26.153Z,20.20
2018-03-14T03:45:31.140Z,20.20
2018-03-14T03:46:36.141Z,20.20
2018-03-14T03:47:41.032Z,20.20
2018-03-14T03:48:45.878Z,20.20
2018-03-14T03:49:50.678Z,20.20
2018-03-14T03:50:55.692Z,20.20
2018-03-14T03:52:00.480Z,20.20
2018-03-14T03:53:05.402Z,20.20
2018-03-14T03:54:10.307Z,20.20
2018-03-14T03:55:15.037Z,20.20
2018-03-14T03:56:19.886Z,20.20
2018-03-14T03:57:24.813Z,20.20
2018-03-14T03:58:29.809Z,20.20
2018-03-14T03:59:34.790Z,20.20
2018-03-14T04:00:39.654Z,20.20
2018-03-14T04:01:44.385Z,20.20
2018-03-14T04:02:49.268Z,20.20
2018-03-14T04:03:54.141Z,20.20
2018-03-14T04:04:59.013Z,20.20
2018-03-14T04:06:04.070Z,20.20
2018-03-14T04:07:09.111Z,20.20
2018-03-14T04:08:13.900Z,20.20
2018-03-14T04:09:18.659Z,20.20
2018-03-14T04:10:23.448Z,20.20
2018-03-14T04:11:28.228Z,20.20
2018-03-14T04:12:33.044Z,20.20
2018-03-14T04:13:38.041Z,20.20
2018-03-14T04:14:43.082Z,20.20
2018-03-14T04:15:48.137Z,20.20
2018-03-14T04:16:52.999Z,20.20
2018-03-14T04:17:58.066Z,20.20
2018-03-14T04:19:03.075Z,20.20
2018-03-14T04:20:08.133Z,20.20
2018-03-14T04:21:13.142Z,20.20
2018-03-14T04:22:18.195Z,20.20
2018-03-14T04:23:23.218Z,20.20
2018-03-14T04:24:28.279Z,20.20
2018-03-14T04:25:33.262Z,20.20
2018-03-14T04:26:38.831Z,20.20
2018-03-14T04:27:43.609Z,20.20
2018-03-14T04:28:48.507Z,20.20
2018-03-14T04:29:54.328Z,20.20
2018-03-14T04:30:59.357Z,20.20
2018-03-14T04:32:04.219Z,20.20
2018-03-14T04:33:09.211Z,20.20
2018-03-14T04:34:14.230Z,20.20
2018-03-14T04:35:19.056Z,20.20
2018-03-14T04:36:23.873Z,20.20
2018-03-14T04:37:29.248Z,20.20
2018-03-14T04:38:34.168Z,20.20
2018-03-14T04:39:39.141Z,20.20
2018-03-14T04:40:43.957Z,20.20
2018-03-14T04:41:49.027Z,20.10
2018-03-14T04:42:54.430Z,20.20
2018-03-14T04:43:59.985Z,20.20
2018-03-14T04:45:05.772Z,20.20
2018-03-14T04:46:10.704Z,20.20
2018-03-14T04:47:15.697Z,20.20
2018-03-14T04:48:20.618Z,20.20
2018-03-14T04:49:25.517Z,20.20
2018-03-14T04:50:30.360Z,20.20
2018-03-14T04:51:35.458Z,20.20
2018-03-14T04:52:40.332Z,20.20
2018-03-14T04:53:45.258Z,20.20
2018-03-14T04:54:50.363Z,20.20
2018-03-14T04:55:55.359Z,20.20
2018-03-14T04:57:00.282Z,20.20
2018-03-14T04:58:05.280Z,20.20
2018-03-14T04:59:10.307Z,20.20
2018-03-14T05:00:15.200Z,20.20
2018-03-14T05:01:20.861Z,20.20
2018-03-14T05:02:25.724Z,20.20
2018-03-14T05:03:30.575Z,20.20
2018-03-14T05:04:35.679Z,20.20
2018-03-14T05:05:40.734Z,20.20
2018-03-14T05:06:45.783Z,20.20
2018-03-14T05:07:50.647Z,20.20
2018-03-14T05:08:55.504Z,20.20
2018-03-14T05:10:00.647Z,20.20
2018-03-14T05:11:05.685Z,20.20
2018-03-14T05:12:10.728Z,20.20
2018-03-14T05:13:15.813Z,20.20
2018-03-14T05:14:20.725Z,20.20
2018-03-14T05:15:25.772Z,20.20
2018-03-14T05:16:31.153Z,20.20
2018-03-14T05:17:36.217Z,20.20
2018-03-14T05:18:41.064Z,20.20
2018-03-14T05:19:45.895Z,20.20
2018-03-14T05:20:50.739Z,20.20
2018-03-14T05:21:55.600Z,20.20
2018-03-14T05:23:00.590Z,20.20
2018-03-14T05:24:05.589Z,20.20
2018-03-14T05:25:11.146Z,20.20
2018-03-14T05:26:15.958Z,20.20
2018-03-14T05:27:20.954Z,20.20
2018-03-14T05:28:25.980Z,20.20
2018-03-14T05:29:30.797Z,20.20
2018-03-14T05:30:35.845Z,20.20
2018-03-14T05:31:40.701Z,20.20
2018-03-14T05:32:45.725Z,20.20
2018-03-14T05:33:50.796Z,20.20
2018-03-14T05:34:55.689Z,20.20
2018-03-14T05:36:00.563Z,20.20
2018-03-14T05:37:05.441Z,20.20
2018-03-14T05:38:10.328Z,20.20
2018-03-14T05:39:15.373Z,20.20
2018-03-14T05:40:20.286Z,20.20
2018-03-14T05:41:25.389Z,20.20
2018-03-14T05:42:30.317Z,20.20
2018-03-14T05:43:35.162Z,20.20
2018-03-14T05:44:40.180Z,20.20
2018-03-14T05:45:46.206Z,20.20
2018-03-14T05:46:51.245Z,20.20
2018-03-14T05:47:57.081Z,20.20
2018-03-14T05:49:02.088Z,20.20
2018-03-14T05:50:07.137Z,20.20
2018-03-14T05:51:12.217Z,20.20
2018-03-14T05:52:17.591Z,20.10
2018-03-14T05:53:22.578Z,20.20
2018-03-14T05:54:27.605Z,20.20
2018-03-14T05:55:32.668Z,20.20
2018-03-14T05:56:37.597Z,20.20
2018-03-14T05:57:42.677Z,20.20
2018-03-14T05:58:47.517Z,20.20
2018-03-14T05:59:52.357Z,20.20
2018-03-14T06:00:57.196Z,20.20
2018-03-14T06:02:02.119Z,20.20
2018-03-14T06:03:07.105Z,20.20
2018-03-14T06:04:12.678Z,20.20
2018-03-14T06:05:17.672Z,20.20
2018-03-14T06:06:22.656Z,20.20
2018-03-14T06:07:27.672Z,20.20
2018-03-14T06:08:32.686Z,20.20
2018-03-14T06:09:37.731Z,20.20
2018-03-14T06:10:43.082Z,20.20
2018-03-14T06:11:47.983Z,20.20
2018-03-14T06:12:53.714Z,20.20
2018-03-14T06:13:58.688Z,20.20
2018-03-14T06:15:03.704Z,20.20
2018-03-14T06:16:09.110Z,20.20
2018-03-14T06:17:14.034Z,20.20
2018-03-14T06:18:19.101Z,20.20
2018-03-14T06:19:24.074Z,20.20
2018-03-14T06:20:29.048Z,20.20
2018-03-14T06:21:34.026Z,20.20
2018-03-14T06:22:39.057Z,20.20
2018-03-14T06:23:43.916Z,20.20
2018-03-14T06:24:48.749Z,20.20
2018-03-14T06:25:53.805Z,20.20
2018-03-14T06:26:58.703Z,20.30
2018-03-14T06:28:03.710Z,20.20
2018-03-14T06:29:08.737Z,20.20
2018-03-14T06:30:13.714Z,20.10
2018-03-14T06:31:18.706Z,20.00
2018-03-14T06:32:23.711Z,19.90
2018-03-14T06:33:28.531Z,19.80
2018-03-14T06:34:33.439Z,19.70
2018-03-14T06:35:38.970Z,19.60
2018-03-14T06:36:44.041Z,19.50
2018-03-14T06:37:49.069Z,19.50
2018-03-14T06:38:54.120Z,19.40
2018-03-14T06:39:58.982Z,19.40
2018-03-14T06:41:04.348Z,19.30
2018-03-14T06:42:09.248Z,19.30
2018-03-14T06:43:14.225Z,19.20
2018-03-14T06:44:19.010Z,19.20
2018-03-14T06:45:24.021Z,19.30
2018-03-14T06:46:28.911Z,19.30
2018-03-14T06:47:33.927Z,19.40
2018-03-14T06:48:38.974Z,19.40
2018-03-14T06:49:43.994Z,19.50
2018-03-14T06:50:48.901Z,19.50
2018-03-14T06:51:53.943Z,19.60
2018-03-14T06:52:58.969Z,19.60
2018-03-14T06:54:03.831Z,19.70
2018-03-14T06:55:08.848Z,19.70
2018-03-14T06:56:13.704Z,19.80
2018-03-14T06:57:18.759Z,19.90
2018-03-14T06:58:23.632Z,19.90
2018-03-14T06:59:28.673Z,19.90
2018-03-14T07:00:33.657Z,20.00
2018-03-14T07:01:38.724Z,20.00
2018-03-14T07:02:43.839Z,20.00
2018-03-14T07:03:48.788Z,20.00
2018-03-14T07:04:54.393Z,20.10
2018-03-14T07:05:59.364Z,20.10
2018-03-14T07:07:04.416Z,20.10
2018-03-14T07:08:09.369Z,20.10
2018-03-14T07:09:14.368Z,20.20
2018-03-14T07:10:19.433Z,20.20
2018-03-14T07:11:24.432Z,20.20
2018-03-14T07:12:29.450Z,20.20
2018-03-14T07:13:34.585Z,20.20
2018-03-14T07:14:39.440Z,20.20
2018-03-14T07:15:44.387Z,20.30
2018-03-14T07:16:49.349Z,20.30
2018-03-14T07:17:55.091Z,20.30
2018-03-14T07:19:00.116Z,20.30
2018-03-14T07:20:04.961Z,20.30
2018-03-14T07:21:09.761Z,20.30
2018-03-14T07:22:14.670Z,20.30
2018-03-14T07:23:19.669Z,20.40
2018-03-14T07:24:24.454Z,20.40
2018-03-14T07:25:29.480Z,20.40
2018-03-14T07:26:35.012Z,20.40
2018-03-14T07:27:39.836Z,20.40
2018-03-14T07:28:44.655Z,20.40
2018-03-14T07:29:49.528Z,20.40
2018-03-14T07:30:54.367Z,20.40
2018-03-14T07:31:59.710Z,20.40
2018-03-14T07:33:06.060Z,20.40
2018-03-14T07:34:11.167Z,20.40
2018-03-14T07:35:16.380Z,20.40
2018-03-14T07:36:21.496Z,20.30
2018-03-14T07:37:26.381Z,20.40
2018-03-14T07:38:31.455Z,20.50
2018-03-14T07:39:36.770Z,20.50
2018-03-14T07:40:41.819Z,20.50
2018-03-14T07:41:46.799Z,20.50
2018-03-14T07:42:51.788Z,20.50
2018-03-14T07:43:56.649Z,20.50
2018-03-14T07:45:01.530Z,20.50
2018-03-14T07:46:06.306Z,20.50
2018-03-14T07:47:11.076Z,20.50
2018-03-14T07:48:15.880Z,20.40
2018-03-14T07:49:21.505Z,20.50
2018-03-14T07:50:26.527Z,20.40
2018-03-14T07:51:31.327Z,20.40
2018-03-14T07:52:36.313Z,20.40
2018-03-14T07:53:41.048Z,20.40
2018-03-14T07:54:46.012Z,20.40
2018-03-14T07:55:50.826Z,20.40
2018-03-14T07:56:55.788Z,20.40
2018-03-14T07:58:00.604Z,20.40
2018-03-14T07:59:05.952Z,20.40
2018-03-14T08:00:10.830Z,20.40
2018-03-14T08:01:15.880Z,20.40
2018-03-14T08:02:20.730Z,20.40
2018-03-14T08:03:25.632Z,20.40
2018-03-14T08:04:30.735Z,20.40
2018-03-14T08:05:35.784Z,20.40
2018-03-14T08:06:40.619Z,20.50
2018-03-14T08:07:45.679Z,20.40
2018-03-14T08:08:50.444Z,20.40
2018-03-14T08:09:55.198Z,20.50
2018-03-14T08:11:00.005Z,20.50
2018-03-14T08:12:04.866Z,20.50
2018-03-14T08:13:09.669Z,20.50
2018-03-14T08:14:14.449Z,20.50
2018-03-14T08:15:19.291Z,20.50
2018-03-14T08:16:24.410Z,20.50
2018-03-14T08:17:29.478Z,20.50
2018-03-14T08:18:34.325Z,20.50
2018-03-14T08:19:39.292Z,20.50
2018-03-14T08:20:44.097Z,20.50
2018-03-14T08:21:49.109Z,20.50
2018-03-14T08:22:54.156Z,20.50
2018-03-14T08:23:59.012Z,20.50
2018-03-14T08:25:04.044Z,20.50
2018-03-14T08:26:09.120Z,20.50
2018-03-14T08:27:14.294Z,20.50
2018-03-14T08:28:19.331Z,20.50
2018-03-14T08:29:24.230Z,20.50
2018-03-14T08:30:29.316Z,20.50
2018-03-14T08:31:34.377Z,20.50
2018-03-14T08:32:39.449Z,20.50
2018-03-14T08:33:44.971Z,20.50
2018-03-14T08:34:50.322Z,20.50
2018-03-14T08:35:55.153Z,20.50
2018-03-14T08:36:59.986Z,20.50
2018-03-14T08:38:04.983Z,20.50
2018-03-14T08:39:09.840Z,20.50
2018-03-14T08:40:15.937Z,20.50
2018-03-14T08:41:20.938Z,20.50
2018-03-14T08:42:25.809Z,20.40
2018-03-14T08:43:30.631Z,20.50
2018-03-14T08:44:35.846Z,20.50
2018-03-14T08:45:40.909Z,20.50
2018-03-14T08:46:47.255Z,20.50
2018-03-14T08:47:52.163Z,20.50
2018-03-14T08:48:56.990Z,20.50
2018-03-14T08:50:02.065Z,20.50
2018-03-14T08:51:06.961Z,20.50
2018-03-14T08:52:11.768Z,20.50
2018-03-14T08:53:16.860Z,20.50
2018-03-14T08:54:21.915Z,20.50
2018-03-14T08:55:26.944Z,20.50
2018-03-14T08:56:31.779Z,20.50
2018-03-14T08:57:36.575Z,20.50
2018-03-14T08:58:42.855Z,20.50
2018-03-14T08:59:47.712Z,20.50
2018-03-14T09:00:52.679Z,20.50
2018-03-14T09:01:57.663Z,20.50
2018-03-14T09:03:02.709Z,20.40
2018-03-14T09:04:07.777Z,20.40
2018-03-14T09:05:12.684Z,20.40
2018-03-14T09:06:17.486Z,20.40
2018-03-14T09:07:22.303Z,20.40
2018-03-14T09:08:27.068Z,20.40
2018-03-14T09:09:32.036Z,20.40
2018-03-14T09:10:36.796Z,20.40
2018-03-14T09:11:41.614Z,20.40
2018-03-14T09:12:47.534Z,20.40
2018-03-14T09:13:52.555Z,20.40
2018-03-14T09:14:57.491Z,20.40
2018-03-14T09:16:02.506Z,20.40
2018-03-14T09:17:07.450Z,20.40
2018-03-14T09:18:12.256Z,20.40
2018-03-14T09:19:17.200Z,20.40
2018-03-14T09:20:22.833Z,20.40
2018-03-14T09:21:27.679Z,20.40
2018-03-14T09:22:32.542Z,20.40
2018-03-14T09:23:37.527Z,20.40
2018-03-14T09:24:42.377Z,20.40
2018-03-14T09:25:47.147Z,20.40
2018-03-14T09:26:52.151Z,20.40
2018-03-14T09:27:57.094Z,20.40
2018-03-14T09:29:01.872Z,20.40
2018-03-14T09:30:06.632Z,20.40
2018-03-14T09:31:11.615Z,20.40
2018-03-14T09:32:16.570Z,20.40
2018-03-14T09:33:21.424Z,20.40
2018-03-14T09:34:26.186Z,20.40
2018-03-14T09:35:31.780Z,20.40
2018-03-14T09:36:36.626Z,20.40
2018-03-14T09:37:41.497Z,20.40
2018-03-14T09:38:46.420Z,20.40
2018-03-14T09:39:51.444Z,20.40
2018-03-14T09:40:56.286Z,20.40
2018-03-14T09:42:01.064Z,20.40
2018-03-14T09:43:05.910Z,20.40
2018-03-14T09:44:10.972Z,20.40
2018-03-14T09:45:15.865Z,20.40
2018-03-14T09:46:20.900Z,20.40
2018-03-14T09:47:25.731Z,20.40
2018-03-14T09:48:30.626Z,20.40
2018-03-14T09:49:35.612Z,20.40
2018-03-14T09:50:40.687Z,20.40
2018-03-14T09:51:45.620Z,20.40
2018-03-14T09:52:50.419Z,20.40
2018-03-14T09:53:55.314Z,20.40
2018-03-14T09:55:00.294Z,20.40
2018-03-14T09:56:05.354Z,20.40
2018-03-14T09:57:10.354Z,20.40
2018-03-14T09:58:15.268Z,20.40
2018-03-14T09:59:20.929Z,20.40
2018-03-14T10:00:25.824Z,20.40
2018-03-14T10:01:30.690Z,20.40
2018-03-14T10:02:35.656Z,20.40
2018-03-14T10:03:40.585Z,20.40
2018-03-14T10:04:45.668Z,20.40
2018-03-14T10:05:50.680Z,20.40
2018-03-14T10:06:55.617Z,20.40
2018-03-14T10:08:00.510Z,20.40
2018-03-14T10:09:06.833Z,20.40
2018-03-14T10:10:11.708Z,20.40
2018-03-14T10:11:16.626Z,20.40
2018-03-14T10:12:21.494Z,20.40
2018-03-14T10:13:26.350Z,20.40
2018-03-14T10:14:31.345Z,20.40
2018-03-14T10:15:36.293Z,20.40
2018-03-14T10:16:41.289Z,20.40
2018-03-14T10:17:48.550Z,20.40
2018-03-14T10:18:53.848Z,20.40
2018-03-14T10:19:58.852Z,20.40
2018-03-14T10:21:03.666Z,20.40
2018-03-14T10:22:08.667Z,20.40
2018-03-14T10:23:13.854Z,20.40
2018-03-14T10:24:18.954Z,20.40
2018-03-14T10:25:23.990Z,20.40
2018-03-14T10:26:28.990Z,20.40
2018-03-14T10:27:34.415Z,20.40
2018-03-14T10:28:39.513Z,20.40
2018-03-14T10:29:44.582Z,20.40
2018-03-14T10:30:49.586Z,20.40
2018-03-14T10:31:54.788Z,20.40
2018-03-14T10:32:59.622Z,20.40
2018-03-14T10:34:04.607Z,20.40
2018-03-14T10:35:09.544Z,20.40
2018-03-14T10:36:14.488Z,20.40
2018-03-14T10:37:20.026Z,20.40
2018-03-14T10:38:25.111Z,20.40
2018-03-14T10:39:30.066Z,20.40
2018-03-14T10:40:34.898Z,20.40
2018-03-14T10:41:39.737Z,20.40
2018-03-14T10:42:45.133Z,20.40
2018-03-14T10:43:50.011Z,20.40
2018-03-14T10:44:54.886Z,20.40
2018-03-14T10:45:59.774Z,20.40
2018-03-14T10:47:04.678Z,20.40
2018-03-14T10:48:09.519Z,20.40
2018-03-14T10:49:14.487Z,20.40
2018-03-14T10:50:19.461Z,20.40
2018-03-14T10:51:24.350Z,20.30
2018-03-14T10:52:29.434Z,20.30
2018-03-14T10:53:34.371Z,20.30
2018-03-14T10:54:39.238Z,20.40
2018-03-14T10:55:44.153Z,20.40
2018-03-14T10:56:49.125Z,20.40
2018-03-14T10:57:54.036Z,20.40
2018-03-14T10:58:58.946Z,20.30
2018-03-14T11:00:03.863Z,20.40
2018-03-14T11:01:08.835Z,20.40
2018-03-14T11:02:13.881Z,20.40
2018-03-14T11:03:18.912Z,20.40
2018-03-14T11:04:24.014Z,20.30
2018-03-14T11:05:29.645Z,20.30
2018-03-14T11:06:34.503Z,20.40
2018-03-14T11:07:39.305Z,20.40
2018-03-14T11:08:44.200Z,20.40
2018-03-14T11:09:49.004Z,20.40
2018-03-14T11:10:54.114Z,20.40
2018-03-14T11:11:59.042Z,20.40
2018-03-14T11:13:04.094Z,20.40
2018-03-14T11:14:09.076Z,20.40
2018-03-14T11:15:13.987Z,20.40
2018-03-14T11:16:18.810Z,20.40
2018-03-14T11:17:23.706Z,20.40
2018-03-14T11:18:28.520Z,20.40
2018-03-14T11:19:33.429Z,20.40
2018-03-14T11:20:38.504Z,20.40
2018-03-14T11:21:43.485Z,20.40
2018-03-14T11:22:48.453Z,20.40
2018-03-14T11:23:53.453Z,20.40
2018-03-14T11:24:58.464Z,20.40
2018-03-14T11:26:03.373Z,20.40
2018-03-14T11:27:08.807Z,20.40
2018-03-14T11:28:13.818Z,20.40
2018-03-14T11:29:18.900Z,20.40
2018-03-14T11:30:23.838Z,20.30
2018-03-14T11:31:28.934Z,20.40
2018-03-14T11:32:33.970Z,20.40
2018-03-14T11:33:38.838Z,20.30
2018-03-14T11:34:44.476Z,20.30
2018-03-14T11:35:49.470Z,20.30
2018-03-14T11:36:54.503Z,20.40
2018-03-14T11:37:59.389Z,20.30
2018-03-14T11:39:04.510Z,20.40
2018-03-14T11:40:09.351Z,20.40
2018-03-14T11:41:14.240Z,20.40
2018-03-14T11:42:19.243Z,20.40
2018-03-14T11:43:24.178Z,20.30
2018-03-14T11:44:29.034Z,20.30
2018-03-14T11:45:34.019Z,20.30
2018-03-14T11:46:39.075Z,20.40
2018-03-14T11:47:43.959Z,20.30
2018-03-14T11:48:48.732Z,20.30
2018-03-14T11:49:53.853Z,20.30
2018-03-14T11:50:58.830Z,20.30
2018-03-14T11:52:03.707Z,20.30
2018-03-14T11:53:08.719Z,20.30
2018-03-14T11:54:13.724Z,20.30
2018-03-14T11:55:18.565Z,20.30
2018-03-14T11:56:23.670Z,20.30
2018-03-14T11:57:28.930Z,20.30
2018-03-14T11:58:33.794Z,20.30
2018-03-14T11:59:38.808Z,20.30
2018-03-14T12:00:43.626Z,20.30
2018-03-14T12:01:48.446Z,20.30
2018-03-14T12:02:53.309Z,20.30
2018-03-14T12:03:58.292Z,20.30
2018-03-14T12:05:03.167Z,20.30
2018-03-14T12:06:08.238Z,20.30
2018-03-14T12:07:13.246Z,20.30
2018-03-14T12:08:18.108Z,20.30
2018-03-14T12:09:23.013Z,20.30
2018-03-14T12:10:27.847Z,20.30
2018-03-14T12:11:32.697Z,20.30
2018-03-14T12:12:37.560Z,20.30
2018-03-14T12:13:42.375Z,20.30
2018-03-14T12:14:47.399Z,20.30
2018-03-14T12:15:52.218Z,20.30
2018-03-14T12:16:57.244Z,20.30
2018-03-14T12:18:02.266Z,20.30
2018-03-14T12:19:07.158Z,20.30
2018-03-14T12:20:12.037Z,20.30
2018-03-14T12:21:17.067Z,20.30
2018-03-14T12:22:22.099Z,20.30
2018-03-14T12:23:27.001Z,20.30
2018-03-14T12:24:32.199Z,20.30
2018-03-14T12:25:37.055Z,20.30
2018-03-14T12:26:41.839Z,20.30
2018-03-14T12:27:46.792Z,20.30
2018-03-14T12:28:51.632Z,20.30
2018-03-14T12:29:56.645Z,20.30
2018-03-14T12:31:01.643Z,20.30
2018-03-14T12:32:06.501Z,20.30
2018-03-14T12:33:11.268Z,20.30
2018-03-14T12:34:16.362Z,20.30
2018-03-14T12:35:21.167Z,20.30
2018-03-14T12:36:26.034Z,20.30
2018-03-14T12:37:30.890Z,20.30
2018-03-14T12:38:35.891Z,20.30
2018-03-14T12:39:40.901Z,20.30
2018-03-14T12:40:45.873Z,20.30
2018-03-14T12:41:50.657Z,20.30
2018-03-14T12:42:55.466Z,20.30
2018-03-14T12:44:00.520Z,20.30
2018-03-14T12:45:06.066Z,20.30
2018-03-14T12:46:11.046Z,20.30
2018-03-14T12:47:15.847Z,20.30
2018-03-14T12:48:20.688Z,20.30
2018-03-14T12:49:25.771Z,20.30
2018-03-14T12:50:30.813Z,20.30
2018-03-14T12:51:35.774Z,20.30
2018-03-14T12:52:41.328Z,20.30
2018-03-14T12:53:46.165Z,20.30
2018-03-14T12:54:51.037Z,20.30
2018-03-14T12:55:55.956Z,20.30
2018-03-14T12:57:00.998Z,20.30
2018-03-14T12:58:05.988Z,20.30
2018-03-14T12:59:11.022Z,20.30
2018-03-14T13:00:15.954Z,20.30
2018-03-14T13:01:21.580Z,20.30
2018-03-14T13:02:26.460Z,20.30
2018-03-14T13:03:31.786Z,20.30
2018-03-14T13:04:36.806Z,20.30
2018-03-14T13:05:41.834Z,20.30
2018-03-14T13:06:46.640Z,20.30
2018-03-14T13:07:51.489Z,20.30
2018-03-14T13:08:56.298Z,20.30
2018-03-14T13:10:01.132Z,20.30
2018-03-14T13:11:06.132Z,20.30
2018-03-14T13:12:10.888Z,20.30
2018-03-14T13:13:15.692Z,20.30
2018-03-14T13:14:20.545Z,20.30
2018-03-14T13:15:25.612Z,20.30
2018-03-14T13:16:30.473Z,20.30
2018-03-14T13:17:35.499Z,20.30
2018-03-14T13:18:40.367Z,20.30
2018-03-14T13:19:45.331Z,20.30
2018-03-14T13:20:50.607Z,20.30
2018-03-14T13:21:55.615Z,20.30
2018-03-14T13:23:00.398Z,20.30
2018-03-14T13:24:05.290Z,20.30
2018-03-14T13:25:10.297Z,20.30
2018-03-14T13:26:15.131Z,20.40
2018-03-14T13:27:20.081Z,20.40
2018-03-14T13:28:24.929Z,20.40
2018-03-14T13:29:30.018Z,20.40
2018-03-14T13:30:34.933Z,20.40
2018-03-14T13:31:39.785Z,20.40
2018-03-14T13:32:44.733Z,20.40
2018-03-14T13:33:49.799Z,20.40
2018-03-14T13:34:54.922Z,20.40
2018-03-14T13:36:00.334Z,20.40
2018-03-14T13:37:05.143Z,20.40
2018-03-14T13:38:10.026Z,20.40
2018-03-14T13:39:14.988Z,20.40
2018-03-14T13:40:19.896Z,20.40
2018-03-14T13:41:24.910Z,20.40
2018-03-14T13:42:30.028Z,20.40
2018-03-14T13:43:35.387Z,20.40
2018-03-14T13:44:40.225Z,20.40
2018-03-14T13:45:45.101Z,20.40
2018-03-14T13:46:50.020Z,20.40
2018-03-14T13:47:55.039Z,20.40
2018-03-14T13:49:00.171Z,20.40
2018-03-14T13:50:05.278Z,20.40
2018-03-14T13:51:10.178Z,20.40
2018-03-14T13:52:15.079Z,20.40
2018-03-14T13:53:19.967Z,20.40
2018-03-14T13:54:24.981Z,20.40
2018-03-14T13:55:29.878Z,20.40
2018-03-14T13:56:34.704Z,20.40